sensor_id;sensor_type;location;lat;lon;timestamp;P1;durP1;ratioP1;P2;durP2;ratioP2
15102;SDS011;7652;53.584;9.998;2023-12-04T00:02:51;20.77;;;12.73;;
15102;SDS011;7652;53.584;9.998;2023-12-04T00:06:14;20.37;;;11.40;;
15102;SDS011;7652;53.584;9.998;2023-12-04T00:09:36;19.47;;;11.53;;
15102;SDS011;7652;53.584;9.998;2023-12-04T00:12:57;19.30;;;11.77;;
15102;SDS011;7652;53.584;9.998;2023-12-04T00:16:19;19.27;;;11.53;;
15102;SDS011;7652;53.584;9.998;2023-12-04T00:19:40;19.70;;;11.90;;
15102;SDS011;7652;53.584;9.998;2023-12-04T00:23:03;18.10;;;11.20;;
15102;SDS011;7652;53.584;9.998;2023-12-04T00:26:25;20.70;;;11.70;;
15102;SDS011;7652;53.584;9.998;2023-12-04T00:29:46;20.73;;;11.83;;
15102;SDS011;7652;53.584;9.998;2023-12-04T00:33:08;19.40;;;11.77;;
15102;SDS011;7652;53.584;9.998;2023-12-04T00:36:29;22.17;;;12.33;;
15102;SDS011;7652;53.584;9.998;2023-12-04T00:39:52;21.87;;;12.13;;
15102;SDS011;7652;53.584;9.998;2023-12-04T00:43:14;20.80;;;11.87;;
15102;SDS011;7652;53.584;9.998;2023-12-04T00:46:35;23.10;;;12.53;;
15102;SDS011;7652;53.584;9.998;2023-12-04T00:49:56;21.37;;;12.07;;
15102;SDS011;7652;53.584;9.998;2023-12-04T00:53:18;20.57;;;11.23;;
15102;SDS011;7652;53.584;9.998;2023-12-04T00:56:41;22.33;;;12.17;;
15102;SDS011;7652;53.584;9.998;2023-12-04T01:00:03;18.73;;;12.07;;
15102;SDS011;7652;53.584;9.998;2023-12-04T01:03:25;21.13;;;12.30;;
15102;SDS011;7652;53.584;9.998;2023-12-04T01:06:47;25.17;;;11.80;;
15102;SDS011;7652;53.584;9.998;2023-12-04T01:10:08;17.67;;;11.33;;
15102;SDS011;7652;53.584;9.998;2023-12-04T01:13:31;19.73;;;11.20;;
15102;SDS011;7652;53.584;9.998;2023-12-04T01:16:53;18.93;;;11.93;;
15102;SDS011;7652;53.584;9.998;2023-12-04T01:20:15;22.27;;;12.13;;
15102;SDS011;7652;53.584;9.998;2023-12-04T01:23:37;20.03;;;11.73;;
15102;SDS011;7652;53.584;9.998;2023-12-04T01:26:58;22.40;;;12.40;;
15102;SDS011;7652;53.584;9.998;2023-12-04T01:30:21;20.27;;;12.10;;
15102;SDS011;7652;53.584;9.998;2023-12-04T01:33:43;21.50;;;11.80;;
15102;SDS011;7652;53.584;9.998;2023-12-04T01:37:04;21.93;;;12.37;;
15102;SDS011;7652;53.584;9.998;2023-12-04T01:40:26;21.27;;;12.03;;
15102;SDS011;7652;53.584;9.998;2023-12-04T01:43:48;20.17;;;12.03;;
15102;SDS011;7652;53.584;9.998;2023-12-04T01:47:11;18.93;;;11.60;;
15102;SDS011;7652;53.584;9.998;2023-12-04T01:50:33;19.90;;;12.00;;
15102;SDS011;7652;53.584;9.998;2023-12-04T01:53:55;21.77;;;11.77;;
15102;SDS011;7652;53.584;9.998;2023-12-04T01:57:19;20.60;;;12.60;;
15102;SDS011;7652;53.584;9.998;2023-12-04T02:00:40;24.47;;;13.07;;
15102;SDS011;7652;53.584;9.998;2023-12-04T02:04:04;19.70;;;12.63;;
15102;SDS011;7652;53.584;9.998;2023-12-04T02:07:25;24.43;;;11.90;;
15102;SDS011;7652;53.584;9.998;2023-12-04T02:10:47;20.83;;;11.30;;
15102;SDS011;7652;53.584;9.998;2023-12-04T02:14:08;21.43;;;12.60;;
15102;SDS011;7652;53.584;9.998;2023-12-04T02:17:30;19.90;;;11.73;;
15102;SDS011;7652;53.584;9.998;2023-12-04T02:20:55;19.57;;;11.20;;
15102;SDS011;7652;53.584;9.998;2023-12-04T02:24:18;20.80;;;12.37;;
15102;SDS011;7652;53.584;9.998;2023-12-04T02:27:40;18.63;;;10.87;;
15102;SDS011;7652;53.584;9.998;2023-12-04T02:31:08;22.43;;;11.37;;
15102;SDS011;7652;53.584;9.998;2023-12-04T02:34:31;20.20;;;12.13;;
15102;SDS011;7652;53.584;9.998;2023-12-04T02:37:54;18.77;;;11.23;;
15102;SDS011;7652;53.584;9.998;2023-12-04T02:41:19;23.20;;;11.50;;
15102;SDS011;7652;53.584;9.998;2023-12-04T02:44:40;19.43;;;11.07;;
15102;SDS011;7652;53.584;9.998;2023-12-04T02:48:02;17.90;;;11.37;;
15102;SDS011;7652;53.584;9.998;2023-12-04T02:51:24;22.83;;;12.17;;
15102;SDS011;7652;53.584;9.998;2023-12-04T02:54:46;22.67;;;13.10;;
15102;SDS011;7652;53.584;9.998;2023-12-04T02:58:09;21.93;;;11.83;;
15102;SDS011;7652;53.584;9.998;2023-12-04T03:01:31;19.33;;;11.10;;
15102;SDS011;7652;53.584;9.998;2023-12-04T03:04:52;21.50;;;12.50;;
15102;SDS011;7652;53.584;9.998;2023-12-04T03:08:14;19.23;;;10.87;;
15102;SDS011;7652;53.584;9.998;2023-12-04T03:11:35;19.83;;;11.57;;
15102;SDS011;7652;53.584;9.998;2023-12-04T03:15:01;22.00;;;11.87;;
15102;SDS011;7652;53.584;9.998;2023-12-04T03:18:22;21.47;;;12.43;;
15102;SDS011;7652;53.584;9.998;2023-12-04T03:21:46;20.33;;;11.20;;
15102;SDS011;7652;53.584;9.998;2023-12-04T03:25:08;18.17;;;11.03;;
15102;SDS011;7652;53.584;9.998;2023-12-04T03:28:29;18.57;;;11.33;;
15102;SDS011;7652;53.584;9.998;2023-12-04T03:31:52;17.43;;;10.83;;
15102;SDS011;7652;53.584;9.998;2023-12-04T03:35:14;16.70;;;9.73;;
15102;SDS011;7652;53.584;9.998;2023-12-04T03:38:35;17.00;;;10.47;;
15102;SDS011;7652;53.584;9.998;2023-12-04T03:41:56;17.33;;;10.57;;
15102;SDS011;7652;53.584;9.998;2023-12-04T03:45:18;16.03;;;9.93;;
15102;SDS011;7652;53.584;9.998;2023-12-04T03:48:41;16.97;;;10.40;;
15102;SDS011;7652;53.584;9.998;2023-12-04T03:52:03;17.67;;;9.53;;
15102;SDS011;7652;53.584;9.998;2023-12-04T03:55:25;15.07;;;9.27;;
15102;SDS011;7652;53.584;9.998;2023-12-04T03:58:46;14.83;;;9.53;;
15102;SDS011;7652;53.584;9.998;2023-12-04T04:02:08;17.07;;;9.37;;
15102;SDS011;7652;53.584;9.998;2023-12-04T04:05:31;15.10;;;9.20;;
15102;SDS011;7652;53.584;9.998;2023-12-04T04:08:54;18.90;;;9.63;;
15102;SDS011;7652;53.584;9.998;2023-12-04T04:12:15;15.97;;;9.30;;
15102;SDS011;7652;53.584;9.998;2023-12-04T04:15:36;15.30;;;9.70;;
15102;SDS011;7652;53.584;9.998;2023-12-04T04:18:58;15.10;;;8.90;;
15102;SDS011;7652;53.584;9.998;2023-12-04T04:22:21;15.63;;;9.13;;
15102;SDS011;7652;53.584;9.998;2023-12-04T04:25:42;14.00;;;8.53;;
15102;SDS011;7652;53.584;9.998;2023-12-04T04:29:04;15.93;;;9.37;;
15102;SDS011;7652;53.584;9.998;2023-12-04T04:32:26;15.50;;;9.87;;
15102;SDS011;7652;53.584;9.998;2023-12-04T04:35:47;15.60;;;9.10;;
15102;SDS011;7652;53.584;9.998;2023-12-04T04:39:11;16.23;;;9.70;;
15102;SDS011;7652;53.584;9.998;2023-12-04T04:42:34;15.23;;;9.07;;
15102;SDS011;7652;53.584;9.998;2023-12-04T04:45:55;14.67;;;8.77;;
15102;SDS011;7652;53.584;9.998;2023-12-04T04:49:18;15.40;;;8.90;;
15102;SDS011;7652;53.584;9.998;2023-12-04T04:52:39;14.53;;;8.30;;
15102;SDS011;7652;53.584;9.998;2023-12-04T04:56:02;13.77;;;8.83;;
15102;SDS011;7652;53.584;9.998;2023-12-04T04:59:25;14.30;;;9.03;;
15102;SDS011;7652;53.584;9.998;2023-12-04T05:02:47;14.97;;;9.40;;
15102;SDS011;7652;53.584;9.998;2023-12-04T05:06:08;17.90;;;9.70;;
15102;SDS011;7652;53.584;9.998;2023-12-04T05:09:30;13.53;;;8.50;;
15102;SDS011;7652;53.584;9.998;2023-12-04T05:12:53;13.67;;;8.80;;
15102;SDS011;7652;53.584;9.998;2023-12-04T05:16:14;17.07;;;9.47;;
15102;SDS011;7652;53.584;9.998;2023-12-04T05:19:36;17.60;;;9.10;;
15102;SDS011;7652;53.584;9.998;2023-12-04T05:22:58;14.67;;;9.07;;
15102;SDS011;7652;53.584;9.998;2023-12-04T05:26:20;16.33;;;9.80;;
15102;SDS011;7652;53.584;9.998;2023-12-04T05:29:42;14.83;;;9.17;;
15102;SDS011;7652;53.584;9.998;2023-12-04T05:33:04;14.80;;;8.67;;
15102;SDS011;7652;53.584;9.998;2023-12-04T05:36:26;16.53;;;9.10;;
15102;SDS011;7652;53.584;9.998;2023-12-04T05:39:48;15.27;;;9.70;;
15102;SDS011;7652;53.584;9.998;2023-12-04T05:43:10;14.17;;;9.20;;
15102;SDS011;7652;53.584;9.998;2023-12-04T05:46:33;13.70;;;9.03;;
15102;SDS011;7652;53.584;9.998;2023-12-04T05:49:54;15.00;;;8.90;;
15102;SDS011;7652;53.584;9.998;2023-12-04T05:53:16;14.47;;;8.57;;
15102;SDS011;7652;53.584;9.998;2023-12-04T05:56:37;15.07;;;9.33;;
15102;SDS011;7652;53.584;9.998;2023-12-04T05:59:59;17.87;;;10.47;;
15102;SDS011;7652;53.584;9.998;2023-12-04T06:03:21;16.07;;;10.23;;
15102;SDS011;7652;53.584;9.998;2023-12-04T06:06:43;15.80;;;9.67;;
15102;SDS011;7652;53.584;9.998;2023-12-04T06:10:05;17.77;;;10.13;;
15102;SDS011;7652;53.584;9.998;2023-12-04T06:13:28;13.17;;;8.77;;
15102;SDS011;7652;53.584;9.998;2023-12-04T06:16:49;18.07;;;10.37;;
15102;SDS011;7652;53.584;9.998;2023-12-04T06:20:12;23.03;;;11.43;;
15102;SDS011;7652;53.584;9.998;2023-12-04T06:23:34;16.43;;;10.50;;
15102;SDS011;7652;53.584;9.998;2023-12-04T06:26:56;23.57;;;10.37;;
15102;SDS011;7652;53.584;9.998;2023-12-04T06:30:19;18.43;;;10.90;;
15102;SDS011;7652;53.584;9.998;2023-12-04T06:33:41;19.70;;;11.17;;
15102;SDS011;7652;53.584;9.998;2023-12-04T06:37:04;20.87;;;10.83;;
15102;SDS011;7652;53.584;9.998;2023-12-04T06:40:30;22.13;;;11.50;;
15102;SDS011;7652;53.584;9.998;2023-12-04T06:43:53;19.33;;;10.70;;
15102;SDS011;7652;53.584;9.998;2023-12-04T06:47:14;16.23;;;10.40;;
15102;SDS011;7652;53.584;9.998;2023-12-04T06:50:42;20.63;;;11.90;;
15102;SDS011;7652;53.584;9.998;2023-12-04T06:54:05;20.60;;;11.50;;
15102;SDS011;7652;53.584;9.998;2023-12-04T06:57:27;19.50;;;11.37;;
15102;SDS011;7652;53.584;9.998;2023-12-04T07:00:48;20.03;;;11.70;;
15102;SDS011;7652;53.584;9.998;2023-12-04T07:04:10;17.17;;;10.03;;
15102;SDS011;7652;53.584;9.998;2023-12-04T07:07:32;21.77;;;11.63;;
15102;SDS011;7652;53.584;9.998;2023-12-04T07:10:55;22.50;;;11.83;;
15102;SDS011;7652;53.584;9.998;2023-12-04T07:14:16;22.13;;;11.53;;
15102;SDS011;7652;53.584;9.998;2023-12-04T07:17:37;22.77;;;12.33;;
15102;SDS011;7652;53.584;9.998;2023-12-04T07:21:01;20.73;;;12.03;;
15102;SDS011;7652;53.584;9.998;2023-12-04T07:24:23;21.67;;;11.43;;
15102;SDS011;7652;53.584;9.998;2023-12-04T07:27:47;17.67;;;11.00;;
15102;SDS011;7652;53.584;9.998;2023-12-04T07:31:08;21.77;;;11.63;;
15102;SDS011;7652;53.584;9.998;2023-12-04T07:34:31;21.20;;;11.87;;
15102;SDS011;7652;53.584;9.998;2023-12-04T07:37:53;19.57;;;11.67;;
15102;SDS011;7652;53.584;9.998;2023-12-04T07:41:14;22.13;;;11.60;;
15102;SDS011;7652;53.584;9.998;2023-12-04T07:44:37;19.60;;;10.77;;
15102;SDS011;7652;53.584;9.998;2023-12-04T07:47:59;19.60;;;10.87;;
15102;SDS011;7652;53.584;9.998;2023-12-04T07:51:20;23.03;;;11.53;;
15102;SDS011;7652;53.584;9.998;2023-12-04T07:54:42;19.87;;;10.80;;
15102;SDS011;7652;53.584;9.998;2023-12-04T07:58:03;18.60;;;11.30;;
15102;SDS011;7652;53.584;9.998;2023-12-04T08:01:26;20.47;;;10.77;;
15102;SDS011;7652;53.584;9.998;2023-12-04T08:04:48;19.87;;;12.63;;
15102;SDS011;7652;53.584;9.998;2023-12-04T08:08:09;21.00;;;11.57;;
15102;SDS011;7652;53.584;9.998;2023-12-04T08:11:30;17.77;;;11.20;;
15102;SDS011;7652;53.584;9.998;2023-12-04T08:14:52;20.73;;;12.13;;
15102;SDS011;7652;53.584;9.998;2023-12-04T08:18:15;21.23;;;12.57;;
15102;SDS011;7652;53.584;9.998;2023-12-04T08:21:36;22.50;;;11.70;;
15102;SDS011;7652;53.584;9.998;2023-12-04T08:24:57;21.23;;;11.37;;
15102;SDS011;7652;53.584;9.998;2023-12-04T08:28:19;20.33;;;11.73;;
15102;SDS011;7652;53.584;9.998;2023-12-04T08:31:41;20.60;;;12.07;;
15102;SDS011;7652;53.584;9.998;2023-12-04T08:35:04;19.13;;;11.30;;
15102;SDS011;7652;53.584;9.998;2023-12-04T08:38:26;22.13;;;12.20;;
15102;SDS011;7652;53.584;9.998;2023-12-04T08:41:47;18.10;;;11.27;;
15102;SDS011;7652;53.584;9.998;2023-12-04T08:45:20;22.33;;;11.83;;
15102;SDS011;7652;53.584;9.998;2023-12-04T08:48:41;21.40;;;11.93;;
15102;SDS011;7652;53.584;9.998;2023-12-04T08:52:05;23.30;;;12.77;;
15102;SDS011;7652;53.584;9.998;2023-12-04T08:55:26;21.63;;;11.33;;
15102;SDS011;7652;53.584;9.998;2023-12-04T08:58:48;21.60;;;13.10;;
15102;SDS011;7652;53.584;9.998;2023-12-04T09:02:10;24.17;;;12.63;;
15102;SDS011;7652;53.584;9.998;2023-12-04T09:05:34;23.63;;;13.37;;
15102;SDS011;7652;53.584;9.998;2023-12-04T09:08:57;20.77;;;12.07;;
15102;SDS011;7652;53.584;9.998;2023-12-04T09:12:27;22.33;;;13.30;;
15102;SDS011;7652;53.584;9.998;2023-12-04T09:15:49;20.23;;;12.13;;
15102;SDS011;7652;53.584;9.998;2023-12-04T09:19:10;22.67;;;12.83;;
15102;SDS011;7652;53.584;9.998;2023-12-04T09:22:32;21.13;;;12.47;;
15102;SDS011;7652;53.584;9.998;2023-12-04T09:26:10;22.07;;;12.27;;
15102;SDS011;7652;53.584;9.998;2023-12-04T09:29:33;19.80;;;11.90;;
15102;SDS011;7652;53.584;9.998;2023-12-04T09:32:55;22.67;;;13.50;;
15102;SDS011;7652;53.584;9.998;2023-12-04T09:36:17;22.00;;;13.73;;
15102;SDS011;7652;53.584;9.998;2023-12-04T09:39:38;21.63;;;12.50;;
15102;SDS011;7652;53.584;9.998;2023-12-04T09:43:02;22.33;;;13.07;;
15102;SDS011;7652;53.584;9.998;2023-12-04T09:46:24;21.67;;;11.63;;
15102;SDS011;7652;53.584;9.998;2023-12-04T09:49:47;20.77;;;13.00;;
15102;SDS011;7652;53.584;9.998;2023-12-04T09:53:12;23.23;;;13.57;;
15102;SDS011;7652;53.584;9.998;2023-12-04T09:56:34;24.57;;;13.80;;
15102;SDS011;7652;53.584;9.998;2023-12-04T09:59:58;22.40;;;13.17;;
15102;SDS011;7652;53.584;9.998;2023-12-04T10:03:23;25.27;;;14.87;;
15102;SDS011;7652;53.584;9.998;2023-12-04T10:06:45;22.37;;;12.97;;
15102;SDS011;7652;53.584;9.998;2023-12-04T10:10:09;20.07;;;13.10;;
15102;SDS011;7652;53.584;9.998;2023-12-04T10:13:31;23.47;;;13.77;;
15102;SDS011;7652;53.584;9.998;2023-12-04T10:17:15;19.50;;;11.47;;
15102;SDS011;7652;53.584;9.998;2023-12-04T10:20:39;19.57;;;12.57;;
15102;SDS011;7652;53.584;9.998;2023-12-04T10:24:26;20.20;;;11.97;;
15102;SDS011;7652;53.584;9.998;2023-12-04T10:27:49;19.10;;;11.67;;
15102;SDS011;7652;53.584;9.998;2023-12-04T10:31:11;18.40;;;11.50;;
15102;SDS011;7652;53.584;9.998;2023-12-04T10:34:33;17.20;;;10.93;;
15102;SDS011;7652;53.584;9.998;2023-12-04T10:37:55;18.97;;;11.83;;
15102;SDS011;7652;53.584;9.998;2023-12-04T10:41:17;19.23;;;10.97;;
15102;SDS011;7652;53.584;9.998;2023-12-04T10:44:38;21.27;;;12.00;;
15102;SDS011;7652;53.584;9.998;2023-12-04T10:48:02;18.63;;;11.30;;
15102;SDS011;7652;53.584;9.998;2023-12-04T10:51:26;21.13;;;11.17;;
15102;SDS011;7652;53.584;9.998;2023-12-04T10:54:49;18.93;;;11.70;;
15102;SDS011;7652;53.584;9.998;2023-12-04T10:58:11;18.70;;;11.87;;
15102;SDS011;7652;53.584;9.998;2023-12-04T11:01:34;19.07;;;10.97;;
15102;SDS011;7652;53.584;9.998;2023-12-04T11:04:58;16.37;;;11.00;;
15102;SDS011;7652;53.584;9.998;2023-12-04T11:08:29;18.47;;;10.90;;
15102;SDS011;7652;53.584;9.998;2023-12-04T11:11:56;17.30;;;11.20;;
15102;SDS011;7652;53.584;9.998;2023-12-04T11:15:20;18.70;;;11.57;;
15102;SDS011;7652;53.584;9.998;2023-12-04T11:18:47;19.13;;;11.37;;
15102;SDS011;7652;53.584;9.998;2023-12-04T11:22:23;17.03;;;10.93;;
15102;SDS011;7652;53.584;9.998;2023-12-04T11:25:48;19.17;;;11.47;;
15102;SDS011;7652;53.584;9.998;2023-12-04T11:29:10;19.40;;;10.83;;
15102;SDS011;7652;53.584;9.998;2023-12-04T11:32:42;19.67;;;10.97;;
15102;SDS011;7652;53.584;9.998;2023-12-04T11:36:06;14.80;;;10.13;;
15102;SDS011;7652;53.584;9.998;2023-12-04T11:39:33;19.73;;;11.77;;
15102;SDS011;7652;53.584;9.998;2023-12-04T11:42:57;15.53;;;10.30;;
15102;SDS011;7652;53.584;9.998;2023-12-04T11:46:18;17.60;;;10.83;;
15102;SDS011;7652;53.584;9.998;2023-12-04T11:49:42;16.93;;;10.47;;
15102;SDS011;7652;53.584;9.998;2023-12-04T11:53:04;18.33;;;11.17;;
15102;SDS011;7652;53.584;9.998;2023-12-04T11:56:25;17.87;;;10.80;;
15102;SDS011;7652;53.584;9.998;2023-12-04T11:59:48;21.47;;;11.63;;
15102;SDS011;7652;53.584;9.998;2023-12-04T12:03:10;18.43;;;10.67;;
15102;SDS011;7652;53.584;9.998;2023-12-04T12:06:42;18.10;;;10.43;;
15102;SDS011;7652;53.584;9.998;2023-12-04T12:10:04;18.57;;;10.87;;
15102;SDS011;7652;53.584;9.998;2023-12-04T12:13:26;16.23;;;10.97;;
15102;SDS011;7652;53.584;9.998;2023-12-04T12:16:49;15.93;;;10.40;;
15102;SDS011;7652;53.584;9.998;2023-12-04T12:20:14;15.97;;;10.33;;
15102;SDS011;7652;53.584;9.998;2023-12-04T12:23:36;16.63;;;10.30;;
15102;SDS011;7652;53.584;9.998;2023-12-04T12:26:57;14.90;;;10.07;;
15102;SDS011;7652;53.584;9.998;2023-12-04T12:30:19;17.87;;;10.43;;
15102;SDS011;7652;53.584;9.998;2023-12-04T12:33:42;16.53;;;10.73;;
15102;SDS011;7652;53.584;9.998;2023-12-04T12:37:04;15.10;;;10.13;;
15102;SDS011;7652;53.584;9.998;2023-12-04T12:40:27;16.77;;;10.17;;
15102;SDS011;7652;53.584;9.998;2023-12-04T12:43:51;16.93;;;10.47;;
15102;SDS011;7652;53.584;9.998;2023-12-04T12:47:14;18.90;;;11.00;;
15102;SDS011;7652;53.584;9.998;2023-12-04T12:50:37;16.57;;;10.63;;
15102;SDS011;7652;53.584;9.998;2023-12-04T12:53:58;16.50;;;10.27;;
15102;SDS011;7652;53.584;9.998;2023-12-04T12:57:20;17.47;;;11.00;;
15102;SDS011;7652;53.584;9.998;2023-12-04T13:00:41;17.73;;;11.23;;
15102;SDS011;7652;53.584;9.998;2023-12-04T13:04:04;16.13;;;10.43;;
15102;SDS011;7652;53.584;9.998;2023-12-04T13:07:27;17.70;;;10.87;;
15102;SDS011;7652;53.584;9.998;2023-12-04T13:10:49;19.53;;;11.60;;
15102;SDS011;7652;53.584;9.998;2023-12-04T13:14:12;15.33;;;10.53;;
15102;SDS011;7652;53.584;9.998;2023-12-04T13:17:34;16.90;;;10.77;;
15102;SDS011;7652;53.584;9.998;2023-12-04T13:20:55;17.67;;;10.37;;
15102;SDS011;7652;53.584;9.998;2023-12-04T13:24:18;18.13;;;10.30;;
15102;SDS011;7652;53.584;9.998;2023-12-04T13:27:40;20.13;;;11.40;;
15102;SDS011;7652;53.584;9.998;2023-12-04T13:31:02;17.77;;;10.53;;
15102;SDS011;7652;53.584;9.998;2023-12-04T13:34:25;14.20;;;9.97;;
15102;SDS011;7652;53.584;9.998;2023-12-04T13:37:46;15.17;;;9.83;;
15102;SDS011;7652;53.584;9.998;2023-12-04T13:41:16;17.57;;;11.10;;
15102;SDS011;7652;53.584;9.998;2023-12-04T13:45:02;16.50;;;9.80;;
15102;SDS011;7652;53.584;9.998;2023-12-04T13:48:24;15.47;;;10.27;;
15102;SDS011;7652;53.584;9.998;2023-12-04T13:51:46;17.43;;;10.87;;
15102;SDS011;7652;53.584;9.998;2023-12-04T13:55:09;17.77;;;10.77;;
15102;SDS011;7652;53.584;9.998;2023-12-04T13:58:40;15.40;;;10.50;;
15102;SDS011;7652;53.584;9.998;2023-12-04T14:02:04;18.10;;;10.77;;
15102;SDS011;7652;53.584;9.998;2023-12-04T14:05:31;16.50;;;10.93;;
15102;SDS011;7652;53.584;9.998;2023-12-04T14:08:55;16.77;;;11.03;;
15102;SDS011;7652;53.584;9.998;2023-12-04T14:12:18;16.40;;;10.77;;
15102;SDS011;7652;53.584;9.998;2023-12-04T14:15:40;17.43;;;10.87;;
15102;SDS011;7652;53.584;9.998;2023-12-04T14:19:02;17.73;;;10.83;;
15102;SDS011;7652;53.584;9.998;2023-12-04T14:22:25;18.77;;;11.03;;
15102;SDS011;7652;53.584;9.998;2023-12-04T14:25:46;17.67;;;11.00;;
15102;SDS011;7652;53.584;9.998;2023-12-04T14:29:08;18.00;;;10.53;;
15102;SDS011;7652;53.584;9.998;2023-12-04T14:32:31;16.57;;;10.50;;
15102;SDS011;7652;53.584;9.998;2023-12-04T14:36:05;15.93;;;10.07;;
15102;SDS011;7652;53.584;9.998;2023-12-04T14:39:27;16.93;;;10.70;;
15102;SDS011;7652;53.584;9.998;2023-12-04T14:42:48;17.87;;;9.70;;
15102;SDS011;7652;53.584;9.998;2023-12-04T14:46:10;16.20;;;10.30;;
15102;SDS011;7652;53.584;9.998;2023-12-04T14:49:34;16.80;;;9.43;;
15102;SDS011;7652;53.584;9.998;2023-12-04T14:52:56;20.00;;;10.73;;
15102;SDS011;7652;53.584;9.998;2023-12-04T14:56:24;17.70;;;10.60;;
15102;SDS011;7652;53.584;9.998;2023-12-04T15:00:03;16.60;;;10.13;;
15102;SDS011;7652;53.584;9.998;2023-12-04T15:03:44;15.80;;;9.87;;
15102;SDS011;7652;53.584;9.998;2023-12-04T15:07:40;18.10;;;9.77;;
15102;SDS011;7652;53.584;9.998;2023-12-04T15:11:16;17.00;;;10.37;;
15102;SDS011;7652;53.584;9.998;2023-12-04T15:14:55;15.50;;;9.67;;
15102;SDS011;7652;53.584;9.998;2023-12-04T15:18:31;14.83;;;9.37;;
15102;SDS011;7652;53.584;9.998;2023-12-04T15:21:57;16.47;;;9.47;;
15102;SDS011;7652;53.584;9.998;2023-12-04T15:25:20;16.17;;;10.07;;
15102;SDS011;7652;53.584;9.998;2023-12-04T15:28:41;14.47;;;9.87;;
15102;SDS011;7652;53.584;9.998;2023-12-04T15:32:04;15.13;;;8.97;;
15102;SDS011;7652;53.584;9.998;2023-12-04T15:35:26;14.70;;;9.33;;
15102;SDS011;7652;53.584;9.998;2023-12-04T15:38:47;16.57;;;9.73;;
15102;SDS011;7652;53.584;9.998;2023-12-04T15:42:10;20.33;;;9.30;;
15102;SDS011;7652;53.584;9.998;2023-12-04T15:45:32;13.63;;;9.03;;
15102;SDS011;7652;53.584;9.998;2023-12-04T15:48:54;15.00;;;9.70;;
15102;SDS011;7652;53.584;9.998;2023-12-04T15:52:16;14.20;;;9.30;;
15102;SDS011;7652;53.584;9.998;2023-12-04T15:55:38;13.63;;;8.97;;
15102;SDS011;7652;53.584;9.998;2023-12-04T15:59:01;14.17;;;9.03;;
15102;SDS011;7652;53.584;9.998;2023-12-04T16:02:23;14.20;;;9.23;;
15102;SDS011;7652;53.584;9.998;2023-12-04T16:05:44;15.40;;;9.57;;
15102;SDS011;7652;53.584;9.998;2023-12-04T16:09:06;12.70;;;8.30;;
15102;SDS011;7652;53.584;9.998;2023-12-04T16:12:33;12.40;;;8.60;;
15102;SDS011;7652;53.584;9.998;2023-12-04T16:15:57;11.53;;;8.37;;
15102;SDS011;7652;53.584;9.998;2023-12-04T16:19:19;12.70;;;8.33;;
15102;SDS011;7652;53.584;9.998;2023-12-04T16:22:41;12.90;;;8.77;;
15102;SDS011;7652;53.584;9.998;2023-12-04T16:26:05;15.43;;;8.90;;
15102;SDS011;7652;53.584;9.998;2023-12-04T16:29:27;11.73;;;8.13;;
15102;SDS011;7652;53.584;9.998;2023-12-04T16:32:55;13.17;;;7.83;;
15102;SDS011;7652;53.584;9.998;2023-12-04T16:36:16;12.13;;;7.53;;
15102;SDS011;7652;53.584;9.998;2023-12-04T16:39:38;11.33;;;7.53;;
15102;SDS011;7652;53.584;9.998;2023-12-04T16:43:01;10.83;;;7.70;;
15102;SDS011;7652;53.584;9.998;2023-12-04T16:46:23;10.10;;;7.13;;
15102;SDS011;7652;53.584;9.998;2023-12-04T16:49:46;12.47;;;8.23;;
15102;SDS011;7652;53.584;9.998;2023-12-04T16:53:08;11.00;;;7.43;;
15102;SDS011;7652;53.584;9.998;2023-12-04T16:56:31;11.97;;;7.30;;
15102;SDS011;7652;53.584;9.998;2023-12-04T16:59:52;10.40;;;7.20;;
15102;SDS011;7652;53.584;9.998;2023-12-04T17:03:15;10.90;;;6.90;;
15102;SDS011;7652;53.584;9.998;2023-12-04T17:06:39;10.30;;;6.30;;
15102;SDS011;7652;53.584;9.998;2023-12-04T17:10:01;12.27;;;7.20;;
15102;SDS011;7652;53.584;9.998;2023-12-04T17:13:23;9.07;;;6.63;;
15102;SDS011;7652;53.584;9.998;2023-12-04T17:16:45;12.37;;;6.00;;
15102;SDS011;7652;53.584;9.998;2023-12-04T17:20:07;12.80;;;6.47;;
15102;SDS011;7652;53.584;9.998;2023-12-04T17:23:30;9.60;;;6.50;;
15102;SDS011;7652;53.584;9.998;2023-12-04T17:26:52;10.23;;;5.90;;
15102;SDS011;7652;53.584;9.998;2023-12-04T17:30:14;8.53;;;6.70;;
15102;SDS011;7652;53.584;9.998;2023-12-04T17:33:35;9.27;;;6.63;;
15102;SDS011;7652;53.584;9.998;2023-12-04T17:36:57;8.80;;;6.60;;
15102;SDS011;7652;53.584;9.998;2023-12-04T17:40:20;9.67;;;6.03;;
15102;SDS011;7652;53.584;9.998;2023-12-04T17:43:42;8.70;;;5.87;;
15102;SDS011;7652;53.584;9.998;2023-12-04T17:47:04;9.70;;;6.00;;
15102;SDS011;7652;53.584;9.998;2023-12-04T17:50:25;11.00;;;6.33;;
15102;SDS011;7652;53.584;9.998;2023-12-04T17:53:47;8.50;;;5.83;;
15102;SDS011;7652;53.584;9.998;2023-12-04T17:57:10;8.27;;;5.60;;
15102;SDS011;7652;53.584;9.998;2023-12-04T18:00:31;11.50;;;5.40;;
15102;SDS011;7652;53.584;9.998;2023-12-04T18:03:53;9.23;;;5.80;;
15102;SDS011;7652;53.584;9.998;2023-12-04T18:07:16;8.73;;;5.57;;
15102;SDS011;7652;53.584;9.998;2023-12-04T18:10:37;7.77;;;5.10;;
15102;SDS011;7652;53.584;9.998;2023-12-04T18:14:01;7.27;;;5.10;;
15102;SDS011;7652;53.584;9.998;2023-12-04T18:17:24;8.13;;;5.33;;
15102;SDS011;7652;53.584;9.998;2023-12-04T18:20:48;7.37;;;5.53;;
15102;SDS011;7652;53.584;9.998;2023-12-04T18:24:11;8.43;;;5.63;;
15102;SDS011;7652;53.584;9.998;2023-12-04T18:27:33;7.00;;;5.20;;
15102;SDS011;7652;53.584;9.998;2023-12-04T18:30:56;7.13;;;5.47;;
15102;SDS011;7652;53.584;9.998;2023-12-04T18:34:19;7.97;;;4.93;;
15102;SDS011;7652;53.584;9.998;2023-12-04T18:37:43;6.87;;;5.20;;
15102;SDS011;7652;53.584;9.998;2023-12-04T18:41:08;7.67;;;5.23;;
15102;SDS011;7652;53.584;9.998;2023-12-04T18:44:30;6.33;;;4.73;;
15102;SDS011;7652;53.584;9.998;2023-12-04T18:47:56;8.00;;;5.40;;
15102;SDS011;7652;53.584;9.998;2023-12-04T18:51:20;7.23;;;5.07;;
15102;SDS011;7652;53.584;9.998;2023-12-04T18:54:42;6.80;;;4.83;;
15102;SDS011;7652;53.584;9.998;2023-12-04T18:58:04;7.17;;;5.30;;
15102;SDS011;7652;53.584;9.998;2023-12-04T19:01:29;7.27;;;5.33;;
15102;SDS011;7652;53.584;9.998;2023-12-04T19:04:52;6.13;;;5.00;;
15102;SDS011;7652;53.584;9.998;2023-12-04T19:08:13;6.77;;;4.80;;
15102;SDS011;7652;53.584;9.998;2023-12-04T19:11:35;7.07;;;5.47;;
15102;SDS011;7652;53.584;9.998;2023-12-04T19:14:57;8.53;;;5.17;;
15102;SDS011;7652;53.584;9.998;2023-12-04T19:18:18;6.93;;;5.00;;
15102;SDS011;7652;53.584;9.998;2023-12-04T19:21:42;6.13;;;4.53;;
15102;SDS011;7652;53.584;9.998;2023-12-04T19:25:04;7.00;;;5.03;;
15102;SDS011;7652;53.584;9.998;2023-12-04T19:28:26;7.53;;;5.03;;
15102;SDS011;7652;53.584;9.998;2023-12-04T19:31:50;7.47;;;5.07;;
15102;SDS011;7652;53.584;9.998;2023-12-04T19:35:12;6.30;;;5.00;;
15102;SDS011;7652;53.584;9.998;2023-12-04T19:38:34;7.00;;;4.90;;
15102;SDS011;7652;53.584;9.998;2023-12-04T19:41:59;5.83;;;4.83;;
15102;SDS011;7652;53.584;9.998;2023-12-04T19:45:21;7.03;;;4.80;;
15102;SDS011;7652;53.584;9.998;2023-12-04T19:48:43;6.50;;;4.90;;
15102;SDS011;7652;53.584;9.998;2023-12-04T19:52:05;7.50;;;4.67;;
15102;SDS011;7652;53.584;9.998;2023-12-04T19:55:28;7.73;;;5.40;;
15102;SDS011;7652;53.584;9.998;2023-12-04T19:58:49;9.20;;;5.60;;
15102;SDS011;7652;53.584;9.998;2023-12-04T20:02:11;7.80;;;5.87;;
15102;SDS011;7652;53.584;9.998;2023-12-04T20:05:33;8.13;;;5.83;;
15102;SDS011;7652;53.584;9.998;2023-12-04T20:08:55;9.97;;;6.00;;
15102;SDS011;7652;53.584;9.998;2023-12-04T20:12:17;9.53;;;6.20;;
15102;SDS011;7652;53.584;9.998;2023-12-04T20:15:39;10.37;;;6.00;;